createdAt,value
2019-03-20T00:01:49.698Z,9.83
2019-03-20T00:04:18.829Z,11.40
2019-03-20T00:06:47.901Z,9.90
2019-03-20T00:09:17.184Z,9.73
2019-03-20T00:11:46.401Z,8.83
2019-03-20T00:14:15.659Z,12.67
2019-03-20T00:16:44.986Z,10.90
2019-03-20T00:19:14.042Z,13.23
2019-03-20T00:21:43.379Z,11.03
2019-03-20T00:24:12.613Z,11.80
2019-03-20T00:26:41.941Z,12.50
2019-03-20T00:29:13.028Z,13.93
2019-03-20T00:31:45.932Z,13.73
2019-03-20T00:34:16.620Z,16.03
2019-03-20T00:36:45.746Z,14.87
2019-03-20T00:39:14.957Z,17.10
2019-03-20T00:41:44.083Z,15.00
2019-03-20T00:44:13.178Z,20.03
2019-03-20T00:46:42.387Z,21.53
2019-03-20T00:49:11.584Z,20.27
2019-03-20T00:51:40.804Z,22.50
2019-03-20T00:54:10.044Z,18.80
2019-03-20T00:56:39.171Z,18.07
2019-03-20T00:59:08.395Z,18.50
2019-03-20T01:01:37.612Z,20.07
2019-03-20T01:04:06.764Z,18.43
2019-03-20T01:06:35.960Z,22.80
2019-03-20T01:09:07.659Z,26.77
2019-03-20T01:11:36.829Z,20.57
2019-03-20T01:14:05.944Z,21.77
2019-03-20T01:16:35.159Z,19.77
2019-03-20T01:19:04.406Z,20.03
2019-03-20T01:21:33.664Z,18.90
2019-03-20T01:24:02.810Z,21.70
2019-03-20T01:26:32.244Z,22.83
2019-03-20T01:29:01.524Z,22.53
2019-03-20T01:31:30.736Z,23.27
2019-03-20T01:33:59.863Z,23.43
2019-03-20T01:36:28.965Z,20.60
2019-03-20T01:38:58.170Z,21.83
2019-03-20T01:41:37.588Z,24.80
2019-03-20T01:43:58.351Z,22.87
2019-03-20T01:46:27.597Z,26.17
2019-03-20T01:48:56.656Z,20.77
2019-03-20T01:51:25.871Z,25.33
2019-03-20T01:53:54.948Z,26.33
2019-03-20T01:56:24.046Z,23.97
2019-03-20T01:58:53.286Z,23.40
2019-03-20T02:01:22.397Z,23.83
2019-03-20T02:03:51.672Z,23.23
2019-03-20T02:06:21.160Z,22.67
2019-03-20T02:08:50.389Z,22.87
2019-03-20T02:11:19.779Z,25.73
2019-03-20T02:13:48.900Z,23.47
2019-03-20T02:16:18.176Z,23.27
2019-03-20T02:18:47.480Z,21.00
2019-03-20T02:21:16.637Z,22.63
2019-03-20T02:23:45.794Z,22.97
2019-03-20T02:26:14.937Z,27.00
2019-03-20T02:28:44.389Z,23.73
2019-03-20T02:31:13.490Z,25.43
2019-03-20T02:33:42.914Z,24.83
2019-03-20T02:36:12.226Z,22.83
2019-03-20T02:38:41.406Z,24.07
2019-03-20T02:41:10.719Z,30.07
2019-03-20T02:43:39.823Z,25.90
2019-03-20T02:46:09.320Z,28.90
2019-03-20T02:48:38.435Z,25.37
2019-03-20T02:51:07.721Z,25.73
2019-03-20T02:53:36.977Z,25.60
2019-03-20T02:56:06.152Z,27.17
2019-03-20T02:58:35.226Z,27.53
2019-03-20T03:01:04.423Z,29.53
2019-03-20T03:03:33.681Z,31.57
2019-03-20T03:06:07.143Z,26.20
2019-03-20T03:08:34.023Z,32.77
2019-03-20T03:11:03.140Z,34.57
2019-03-20T03:13:32.469Z,29.73
2019-03-20T03:16:01.852Z,29.93
2019-03-20T03:18:31.166Z,30.57
2019-03-20T03:21:00.269Z,30.50
2019-03-20T03:23:29.521Z,28.23
2019-03-20T03:25:58.741Z,31.77
2019-03-20T03:28:27.914Z,34.47
2019-03-20T03:30:57.148Z,35.27
2019-03-20T03:33:26.549Z,37.50
2019-03-20T03:35:55.845Z,35.10
2019-03-20T03:38:25.027Z,33.77
2019-03-20T03:40:54.258Z,37.67
2019-03-20T03:43:24.552Z,34.60
2019-03-20T03:45:53.949Z,43.80
2019-03-20T03:48:23.294Z,33.50
2019-03-20T03:50:52.392Z,46.50
2019-03-20T03:53:21.848Z,44.97
2019-03-20T03:55:51.017Z,43.87
2019-03-20T03:58:20.279Z,41.77
2019-03-20T04:00:49.407Z,44.13
2019-03-20T04:03:18.622Z,44.00
2019-03-20T04:05:47.752Z,45.47
2019-03-20T04:08:17.074Z,38.17
2019-03-20T04:10:46.434Z,41.63
2019-03-20T04:13:15.707Z,49.07
2019-03-20T04:15:45.058Z,38.43
2019-03-20T04:18:14.249Z,39.20
2019-03-20T04:20:43.373Z,35.97
2019-03-20T04:23:12.568Z,31.23
2019-03-20T04:25:41.755Z,30.10
2019-03-20T04:28:10.919Z,32.63
2019-03-20T04:30:40.230Z,29.60
2019-03-20T04:33:09.553Z,30.03
2019-03-20T04:35:38.660Z,31.27
2019-03-20T04:38:08.010Z,37.43
2019-03-20T04:40:37.275Z,29.50
2019-03-20T04:43:06.505Z,26.30
2019-03-20T04:45:35.670Z,29.63
2019-03-20T04:48:04.837Z,25.67
2019-03-20T04:50:34.132Z,31.63
2019-03-20T04:53:03.314Z,27.30
2019-03-20T04:55:32.533Z,26.47
2019-03-20T04:58:01.699Z,29.80
2019-03-20T05:00:31.036Z,23.07
2019-03-20T05:03:01.087Z,24.93
2019-03-20T05:05:30.584Z,29.00
2019-03-20T05:07:59.903Z,23.40
2019-03-20T05:10:29.068Z,26.15
2019-03-20T05:12:58.344Z,23.47
2019-03-20T05:15:27.450Z,26.67
2019-03-20T05:17:56.934Z,28.67
2019-03-20T05:20:26.093Z,27.83
2019-03-20T05:22:55.463Z,30.20
2019-03-20T05:25:24.571Z,30.80
2019-03-20T05:27:53.827Z,30.37
2019-03-20T05:30:23.262Z,27.60
2019-03-20T05:32:52.449Z,30.37
2019-03-20T05:35:21.666Z,33.23
2019-03-20T05:37:50.847Z,32.40
2019-03-20T05:40:20.204Z,33.57
2019-03-20T05:42:49.401Z,33.78
2019-03-20T05:45:18.586Z,36.20
2019-03-20T05:47:47.884Z,30.87
2019-03-20T05:50:17.078Z,40.20
2019-03-20T05:52:46.432Z,41.70
2019-03-20T05:55:16.152Z,40.13
2019-03-20T05:57:45.407Z,43.07
2019-03-20T06:00:15.679Z,42.90
2019-03-20T06:02:45.967Z,39.40
2019-03-20T06:05:15.150Z,45.70
2019-03-20T06:07:44.239Z,44.77
2019-03-20T06:10:13.818Z,38.60
2019-03-20T06:12:43.091Z,51.23
2019-03-20T06:15:12.331Z,41.83
2019-03-20T06:17:41.441Z,44.98
2019-03-20T06:20:10.703Z,44.90
2019-03-20T06:22:39.920Z,44.37
2019-03-20T06:25:09.272Z,46.77
2019-03-20T06:27:38.407Z,48.70
2019-03-20T06:30:09.515Z,48.97
2019-03-20T06:32:38.891Z,44.30
2019-03-20T06:35:21.058Z,43.10
2019-03-20T06:38:00.181Z,42.33
2019-03-20T06:43:45.405Z,46.10
2019-03-20T06:46:35.108Z,42.20
2019-03-20T06:49:04.890Z,38.97
2019-03-20T06:51:35.699Z,41.67
2019-03-20T06:54:05.985Z,37.27
2019-03-20T06:56:38.915Z,40.93
2019-03-20T07:00:00.354Z,35.93
2019-03-20T07:02:39.758Z,39.80
2019-03-20T07:05:34.348Z,45.73
2019-03-20T07:08:03.305Z,38.73
2019-03-20T07:11:27.053Z,41.73
2019-03-20T07:13:56.173Z,40.47
2019-03-20T07:16:28.894Z,35.10
2019-03-20T07:19:06.152Z,41.55
2019-03-20T07:21:35.354Z,42.60
2019-03-20T07:24:04.607Z,35.40
2019-03-20T07:26:34.014Z,41.37
2019-03-20T07:29:06.324Z,40.88
2019-03-20T07:31:35.486Z,42.88
2019-03-20T07:34:36.060Z,40.60
2019-03-20T07:37:05.232Z,41.27
2019-03-20T07:39:34.495Z,41.20
2019-03-20T07:42:03.862Z,40.33
2019-03-20T07:44:33.237Z,35.73
2019-03-20T07:47:02.427Z,37.90
2019-03-20T07:49:31.596Z,41.37
2019-03-20T07:52:00.714Z,45.73
2019-03-20T07:54:29.925Z,37.45
2019-03-20T07:56:59.594Z,35.50
2019-03-20T07:59:28.805Z,29.00
2019-03-20T08:02:19.270Z,33.25
2019-03-20T08:04:48.531Z,31.87
2019-03-20T08:07:17.827Z,33.78
2019-03-20T08:09:47.164Z,37.30
2019-03-20T08:12:16.322Z,34.53
2019-03-20T08:14:45.553Z,37.00
2019-03-20T08:17:14.672Z,25.10
2019-03-20T08:19:43.890Z,35.52
2019-03-20T08:22:12.951Z,34.87
2019-03-20T08:24:42.252Z,25.23
2019-03-20T08:27:11.451Z,38.53
2019-03-20T08:29:40.751Z,34.00
2019-03-20T08:32:10.078Z,33.27
2019-03-20T08:34:39.311Z,32.97
2019-03-20T08:37:08.584Z,28.12
2019-03-20T08:39:37.776Z,28.02
2019-03-20T08:42:06.920Z,34.45
2019-03-20T08:44:36.171Z,30.17
2019-03-20T08:47:05.281Z,28.50
2019-03-20T08:49:34.400Z,27.77
2019-03-20T08:52:03.767Z,27.95
2019-03-20T08:54:52.051Z,32.23
2019-03-20T08:57:21.263Z,26.25
2019-03-20T08:59:50.644Z,26.15
2019-03-20T09:02:19.967Z,25.95
2019-03-20T09:04:49.227Z,25.60
2019-03-20T09:07:19.052Z,29.90
2019-03-20T09:09:50.764Z,24.23
2019-03-20T09:12:19.345Z,28.35
2019-03-20T09:14:48.453Z,35.90
2019-03-20T09:17:17.664Z,31.23
2019-03-20T09:19:46.808Z,27.55
2019-03-20T09:22:16.053Z,26.77
2019-03-20T09:24:45.275Z,29.53
2019-03-20T09:27:14.480Z,26.15
2019-03-20T09:29:43.775Z,36.50
2019-03-20T09:32:13.102Z,33.23
2019-03-20T09:34:42.444Z,30.77
2019-03-20T09:37:11.565Z,31.68
2019-03-20T09:39:40.800Z,29.45
2019-03-20T09:42:10.309Z,28.77
2019-03-20T09:44:39.521Z,31.17
2019-03-20T09:47:08.873Z,29.15
2019-03-20T09:49:38.308Z,27.82
2019-03-20T09:52:07.660Z,30.08
2019-03-20T09:54:36.928Z,38.35
2019-03-20T09:57:06.360Z,32.65
2019-03-20T09:59:35.594Z,33.20
2019-03-20T10:02:04.861Z,30.65
2019-03-20T10:04:34.017Z,30.90
2019-03-20T10:07:03.298Z,30.97
2019-03-20T10:09:32.690Z,33.08
2019-03-20T10:12:01.926Z,30.40
2019-03-20T10:14:32.326Z,30.88
2019-03-20T10:17:01.688Z,32.00
2019-03-20T10:19:30.785Z,35.40
2019-03-20T10:22:00.131Z,32.53
2019-03-20T10:24:29.365Z,37.03
2019-03-20T10:26:58.672Z,37.23
2019-03-20T10:29:33.183Z,34.90
2019-03-20T10:32:02.237Z,35.13
2019-03-20T10:34:39.211Z,33.73
2019-03-20T10:37:02.456Z,24.70
2019-03-20T10:39:31.922Z,27.87
2019-03-20T10:42:01.095Z,23.92
2019-03-20T10:44:30.575Z,20.48
2019-03-20T10:46:59.984Z,22.50
2019-03-20T10:49:29.163Z,27.98
2019-03-20T10:52:04.619Z,25.45
2019-03-20T10:54:33.900Z,25.45
2019-03-20T10:57:03.038Z,25.15
2019-03-20T10:59:34.386Z,27.45
2019-03-20T11:02:03.728Z,28.42
2019-03-20T11:04:33.001Z,27.62
2019-03-20T11:07:02.249Z,31.30
2019-03-20T11:09:31.701Z,23.35
2019-03-20T11:12:19.130Z,19.32
2019-03-20T11:14:48.821Z,20.57
2019-03-20T11:17:18.122Z,23.55
2019-03-20T11:19:47.282Z,25.90
2019-03-20T11:22:19.060Z,29.80
2019-03-20T11:24:47.347Z,24.87
2019-03-20T11:27:16.451Z,24.82
2019-03-20T11:29:45.749Z,23.05
2019-03-20T11:32:14.972Z,28.92
2019-03-20T11:34:44.299Z,20.32
2019-03-20T11:37:13.565Z,22.90
2019-03-20T11:39:42.723Z,22.07
2019-03-20T11:42:11.853Z,21.65
2019-03-20T11:44:41.025Z,24.32
2019-03-20T11:47:10.159Z,21.52
2019-03-20T11:49:39.313Z,17.87
2019-03-20T11:52:08.520Z,24.32
2019-03-20T11:54:37.720Z,20.23
2019-03-20T11:57:06.904Z,22.22
2019-03-20T11:59:36.012Z,24.40
2019-03-20T12:02:05.533Z,19.32
2019-03-20T12:04:34.645Z,20.50
2019-03-20T12:07:04.000Z,18.62
2019-03-20T12:09:41.061Z,22.60
2019-03-20T12:12:04.605Z,22.65
2019-03-20T12:14:34.722Z,20.50
2019-03-20T12:17:04.109Z,20.40
2019-03-20T12:19:44.479Z,20.37
2019-03-20T12:22:04.544Z,19.45
2019-03-20T12:24:33.595Z,20.72
2019-03-20T12:27:14.207Z,20.32
2019-03-20T12:29:33.884Z,18.77
2019-03-20T12:32:03.111Z,20.55
2019-03-20T12:34:32.372Z,16.30
2019-03-20T12:37:01.528Z,17.55
2019-03-20T12:39:30.995Z,16.05
2019-03-20T12:42:00.432Z,16.93
2019-03-20T12:44:29.908Z,13.62
2019-03-20T12:46:59.428Z,14.87
2019-03-20T12:49:28.979Z,17.00
2019-03-20T12:51:58.334Z,17.37
2019-03-20T12:54:27.696Z,21.75
2019-03-20T12:56:56.848Z,20.75
2019-03-20T12:59:26.406Z,18.98
2019-03-20T13:01:55.770Z,16.70
2019-03-20T13:04:24.988Z,15.20
2019-03-20T13:06:54.400Z,14.93
2019-03-20T13:09:23.650Z,18.00
2019-03-20T13:11:53.107Z,15.58
2019-03-20T13:14:22.302Z,19.52
2019-03-20T13:16:51.593Z,20.45
2019-03-20T13:19:21.065Z,16.87
2019-03-20T13:21:50.332Z,22.85
2019-03-20T13:24:20.465Z,19.48
2019-03-20T13:26:49.707Z,18.37
2019-03-20T13:29:19.152Z,21.60
2019-03-20T13:31:48.524Z,16.40
2019-03-20T13:34:18.196Z,19.95
2019-03-20T13:36:47.623Z,17.40
2019-03-20T13:39:16.787Z,15.78
2019-03-20T13:41:46.016Z,18.67
2019-03-20T13:44:15.302Z,17.95
2019-03-20T13:46:44.372Z,16.45
2019-03-20T13:49:13.650Z,19.57
2019-03-20T13:51:42.879Z,19.20
2019-03-20T13:54:11.995Z,12.95
2019-03-20T13:56:41.196Z,16.95
2019-03-20T13:59:10.376Z,15.98
2019-03-20T14:01:39.646Z,16.57
2019-03-20T14:04:08.858Z,15.08
2019-03-20T14:06:38.090Z,11.57
2019-03-20T14:09:08.601Z,13.88
2019-03-20T14:11:37.843Z,16.17
2019-03-20T14:14:07.148Z,18.32
2019-03-20T14:16:36.316Z,16.20
2019-03-20T14:19:05.567Z,15.08
2019-03-20T14:21:34.928Z,15.30
2019-03-20T14:24:04.052Z,19.92
2019-03-20T14:26:33.320Z,13.38
2019-03-20T14:29:02.614Z,16.77
2019-03-20T14:31:31.983Z,14.70
2019-03-20T14:34:01.379Z,12.53
2019-03-20T14:36:30.512Z,13.85
2019-03-20T14:38:59.621Z,12.45
2019-03-20T14:41:28.728Z,14.10
2019-03-20T14:43:58.022Z,13.53
2019-03-20T14:46:27.130Z,18.48
2019-03-20T14:48:56.336Z,16.50
2019-03-20T14:51:25.461Z,16.48
2019-03-20T14:53:54.821Z,22.67
2019-03-20T14:56:24.101Z,17.27
2019-03-20T14:58:53.361Z,18.87
2019-03-20T15:01:22.489Z,16.90
2019-03-20T15:03:51.620Z,16.17
2019-03-20T15:06:23.863Z,16.50
2019-03-20T15:08:53.023Z,19.87
2019-03-20T15:11:22.068Z,22.58
2019-03-20T15:13:51.353Z,24.02
2019-03-20T15:16:20.451Z,17.15
2019-03-20T15:18:49.715Z,26.50
2019-03-20T15:21:18.976Z,21.42
2019-03-20T15:23:48.336Z,16.62
2019-03-20T15:26:17.547Z,22.25
2019-03-20T15:28:46.682Z,21.73
2019-03-20T15:31:15.802Z,19.57
2019-03-20T15:33:44.784Z,28.70
2019-03-20T15:36:13.988Z,21.07
2019-03-20T15:38:43.173Z,27.80
2019-03-20T15:41:13.983Z,24.43
2019-03-20T15:43:43.404Z,24.75
2019-03-20T15:46:12.519Z,17.75
2019-03-20T15:48:41.654Z,16.60
2019-03-20T15:51:10.931Z,20.20
2019-03-20T15:53:40.065Z,20.15
2019-03-20T15:56:09.350Z,16.55
2019-03-20T15:58:38.609Z,18.23
2019-03-20T16:01:07.831Z,18.48
2019-03-20T16:03:43.613Z,21.65
2019-03-20T16:06:13.704Z,12.78
2019-03-20T16:08:43.349Z,15.38
2019-03-20T16:11:13.238Z,12.78
2019-03-20T16:13:45.949Z,18.60
2019-03-20T16:16:15.841Z,11.80
2019-03-20T16:18:45.943Z,11.05
2019-03-20T16:21:15.349Z,13.95
2019-03-20T16:23:44.471Z,15.20
2019-03-20T16:26:13.808Z,16.25
2019-03-20T16:28:43.593Z,16.02
2019-03-20T16:31:13.241Z,15.68
2019-03-20T16:33:44.758Z,13.30
2019-03-20T16:36:13.611Z,15.50
2019-03-20T16:38:43.070Z,15.13
2019-03-20T16:41:16.757Z,16.60
2019-03-20T16:43:43.119Z,19.87
2019-03-20T16:46:12.268Z,15.70
2019-03-20T16:52:00.570Z,19.17
2019-03-20T16:54:25.753Z,16.15
2019-03-20T16:56:55.377Z,16.00
2019-03-20T16:59:24.787Z,18.42
2019-03-20T17:01:53.796Z,16.17
2019-03-20T17:04:23.133Z,19.67
2019-03-20T17:06:52.249Z,19.45
2019-03-20T17:09:21.491Z,13.83
2019-03-20T17:11:50.812Z,18.30
2019-03-20T17:14:20.361Z,12.18
2019-03-20T17:16:49.850Z,14.05
2019-03-20T17:19:19.248Z,14.60
2019-03-20T17:21:48.371Z,13.78
2019-03-20T17:24:17.656Z,13.95
2019-03-20T17:26:47.000Z,13.40
2019-03-20T17:29:16.168Z,12.40
2019-03-20T17:31:55.752Z,15.25
2019-03-20T17:34:24.969Z,10.25
2019-03-20T17:36:54.281Z,14.03
2019-03-20T17:39:23.452Z,11.57
2019-03-20T17:41:52.711Z,14.00
2019-03-20T17:44:21.819Z,14.50
2019-03-20T17:46:51.099Z,12.85
2019-03-20T17:49:20.191Z,12.75
2019-03-20T17:51:49.397Z,14.93
2019-03-20T17:54:18.588Z,12.82
2019-03-20T17:56:47.915Z,12.63
2019-03-20T17:59:17.080Z,15.78
2019-03-20T18:01:46.260Z,11.78
2019-03-20T18:04:15.424Z,15.03
2019-03-20T18:06:45.970Z,14.85
2019-03-20T18:09:15.411Z,18.67
2019-03-20T18:11:47.669Z,16.25
2019-03-20T18:14:15.672Z,11.55
2019-03-20T18:16:45.140Z,14.38
2019-03-20T18:19:14.416Z,10.37
2019-03-20T18:21:43.560Z,9.60
2019-03-20T18:24:12.824Z,8.70
2019-03-20T18:26:42.057Z,8.40
2019-03-20T18:29:11.148Z,10.75
2019-03-20T18:31:46.165Z,12.43
2019-03-20T18:34:30.640Z,9.73
2019-03-20T18:37:06.290Z,8.85
2019-03-20T18:39:59.050Z,8.30
2019-03-20T18:42:49.405Z,11.03
2019-03-20T18:45:41.598Z,8.20
2019-03-20T18:48:36.225Z,8.58
2019-03-20T18:51:30.267Z,9.88
2019-03-20T18:54:17.319Z,11.88
2019-03-20T18:57:11.367Z,7.53
2019-03-20T19:00:06.366Z,11.70
2019-03-20T19:02:59.435Z,10.78
2019-03-20T19:06:06.541Z,10.80
2019-03-20T19:09:01.307Z,13.48
2019-03-20T19:11:54.370Z,13.25
2019-03-20T19:14:49.533Z,14.53
2019-03-20T19:17:43.521Z,10.78
2019-03-20T19:20:37.522Z,16.87
2019-03-20T19:23:44.624Z,11.80
2019-03-20T19:26:38.592Z,13.28
2019-03-20T19:29:31.543Z,13.00
2019-03-20T19:32:22.208Z,10.98
2019-03-20T19:35:12.134Z,12.40
2019-03-20T19:38:06.075Z,13.87
2019-03-20T19:40:59.114Z,13.45
2019-03-20T19:43:53.768Z,12.93
2019-03-20T19:46:51.502Z,12.58
2019-03-20T19:49:32.785Z,13.38
2019-03-20T19:52:16.180Z,15.10
2019-03-20T19:55:11.744Z,15.15
2019-03-20T19:58:02.353Z,11.08
2019-03-20T20:00:56.128Z,13.50
2019-03-20T20:03:47.035Z,10.75
2019-03-20T20:06:38.754Z,11.15
2019-03-20T20:09:36.625Z,13.18
2019-03-20T20:12:34.495Z,13.25
2019-03-20T20:15:29.342Z,13.28
2019-03-20T20:18:18.163Z,10.73
2019-03-20T20:21:15.974Z,11.10
2019-03-20T20:24:08.678Z,12.40
2019-03-20T20:26:38.939Z,14.60
2019-03-20T20:29:08.370Z,15.90
2019-03-20T20:31:37.575Z,13.75
2019-03-20T20:34:07.068Z,14.70
2019-03-20T20:36:36.380Z,12.47
2019-03-20T20:39:07.809Z,13.98
2019-03-20T20:41:37.283Z,14.97
2019-03-20T20:44:07.108Z,16.27
2019-03-20T20:46:36.474Z,17.98
2019-03-20T20:49:05.929Z,14.47
2019-03-20T20:51:35.238Z,19.07
2019-03-20T20:54:04.439Z,14.58
2019-03-20T20:56:33.639Z,18.20
2019-03-20T20:59:02.826Z,19.70
2019-03-20T21:01:44.184Z,19.77
2019-03-20T21:04:13.445Z,17.65
2019-03-20T21:06:42.602Z,17.87
2019-03-20T21:09:12.006Z,19.48
2019-03-20T21:11:41.210Z,17.45
2019-03-20T21:14:18.500Z,20.55
2019-03-20T21:16:48.203Z,19.75
2019-03-20T21:19:31.700Z,20.75
2019-03-20T21:22:48.589Z,21.30
2019-03-20T21:25:19.766Z,21.07
2019-03-20T21:28:22.493Z,24.23
2019-03-20T21:31:09.697Z,22.27
2019-03-20T21:34:21.792Z,23.05
2019-03-20T21:37:28.784Z,24.45
2019-03-20T21:39:58.975Z,23.37
2019-03-20T21:43:07.563Z,23.30
2019-03-20T21:46:06.706Z,27.70
2019-03-20T21:48:36.644Z,27.60
2019-03-20T21:51:19.415Z,25.37
2019-03-20T21:54:16.803Z,25.23
2019-03-20T21:57:16.299Z,21.17
2019-03-20T22:00:10.267Z,35.80
2019-03-20T22:02:41.765Z,22.90
2019-03-20T22:05:23.239Z,24.63
2019-03-20T22:07:52.467Z,27.50
2019-03-20T22:11:07.888Z,28.55
2019-03-20T22:13:46.844Z,26.93
2019-03-20T22:17:30.730Z,25.30
2019-03-20T22:20:43.713Z,27.00
2019-03-20T22:23:36.750Z,25.60
2019-03-20T22:26:55.203Z,29.98
2019-03-20T22:29:34.179Z,22.20
2019-03-20T22:32:41.676Z,25.67
2019-03-20T22:35:40.596Z,29.23
2019-03-20T22:38:56.114Z,27.52
2019-03-20T22:41:51.117Z,25.53
2019-03-20T22:44:28.548Z,29.27
2019-03-20T22:47:35.530Z,31.17
2019-03-20T22:50:53.855Z,29.52
2019-03-20T22:54:08.345Z,25.55
2019-03-20T22:57:23.944Z,28.43
2019-03-20T22:59:53.607Z,26.90
2019-03-20T23:02:43.757Z,28.00
2019-03-20T23:05:13.503Z,29.15
2019-03-20T23:07:43.102Z,29.32
2019-03-20T23:10:14.280Z,26.07
2019-03-20T23:12:43.976Z,28.33
2019-03-20T23:15:16.320Z,32.80
2019-03-20T23:17:46.080Z,28.70
2019-03-20T23:20:20.064Z,24.47
2019-03-20T23:22:49.739Z,28.77
2019-03-20T23:25:19.559Z,31.00
2019-03-20T23:27:49.258Z,31.47
2019-03-20T23:30:21.923Z,30.13
2019-03-20T23:32:51.665Z,27.50
2019-03-20T23:35:21.411Z,27.47
2019-03-20T23:37:51.210Z,30.73
2019-03-20T23:40:20.886Z,25.83
2019-03-20T23:42:54.204Z,25.90
2019-03-20T23:45:26.185Z,31.73
2019-03-20T23:48:03.084Z,30.03
2019-03-20T23:50:34.946Z,29.90
2019-03-20T23:53:04.996Z,24.50
2019-03-20T23:55:35.077Z,30.50
2019-03-20T23:58:07.139Z,28.55
